Time;durP1;ratioP1;P1;durP2;ratioP2;P2;SDS_P1;SDS_P2;PMS_P1;PMS_P2;Temp;Humidity;BMP_temperature;BMP_pressure;BME280_temperature;BME280_humidity;BME280_pressure;Samples;Min_cycle;Max_cycle;Signal;HPM_P1;HPM_P2
2022/07/20 00:01:52;;;;;;;226.68;215.65;;;;;;;;;;5035844;28;20034;-74
2022/07/20 00:04:17;;;;;;;210.35;199.90;;;;;;;;;;5036062;28;20021;-75
2022/07/20 00:06:43;;;;;;;205.15;195.00;;;;;;;;;;5037683;28;20790;-74
2022/07/20 00:11:52;;;;;;;215.18;204.70;;;;;;;;;;5036991;28;20060;-74
2022/07/20 00:14:18;;;;;;;199.23;189.43;;;;;;;;;;5035749;28;20049;-74
2022/07/20 00:16:43;;;;;;;171.60;163.18;;;;;;;;;;5035965;28;20574;-74
2022/07/20 00:19:09;;;;;;;171.15;162.73;;;;;;;;;;5034383;28;20104;-75
2022/07/20 00:21:34;;;;;;;206.00;195.95;;;;;;;;;;5036945;28;20037;-75
2022/07/20 00:24:00;;;;;;;193.38;183.93;;;;;;;;;;5037944;28;20049;-75
2022/07/20 00:26:25;;;;;;;206.27;196.18;;;;;;;;;;5036664;28;20021;-76
2022/07/20 00:28:50;;;;;;;181.77;172.85;;;;;;;;;;5038900;28;20025;-76
2022/07/20 00:31:17;;;;;;;122.05;116.00;;;;;;;;;;5041032;28;20124;-74
2022/07/20 00:33:46;;;;;;;132.43;125.82;;;;;;;;;;5034510;28;20478;-69
2022/07/20 00:36:12;;;;;;;138.13;131.25;;;;;;;;;;5034123;28;20105;-67
2022/07/20 00:38:37;;;;;;;130.70;124.18;;;;;;;;;;5033734;28;20021;-67
2022/07/20 00:41:02;;;;;;;148.45;141.02;;;;;;;;;;5035351;28;20037;-67
2022/07/20 00:43:28;;;;;;;135.43;128.63;;;;;;;;;;5039382;28;20024;-68
2022/07/20 00:45:53;;;;;;;106.32;101.00;;;;;;;;;;5036066;28;20037;-68
2022/07/20 00:48:18;;;;;;;127.55;121.18;;;;;;;;;;5033582;28;20040;-68
2022/07/20 00:50:44;;;;;;;160.75;152.63;;;;;;;;;;5038238;28;20101;-68
2022/07/20 00:53:09;;;;;;;153.25;145.52;;;;;;;;;;5037932;28;20029;-68
2022/07/20 00:55:35;;;;;;;161.45;153.35;;;;;;;;;;5032886;28;20040;-69
2022/07/20 00:58:01;;;;;;;116.20;110.32;;;;;;;;;;5032423;28;20031;-68
2022/07/20 01:00:26;;;;;;;157.43;149.50;;;;;;;;;;5035804;28;20029;-69
2022/07/20 01:02:52;;;;;;;128.80;122.30;;;;;;;;;;5034067;28;20123;-68
2022/07/20 01:05:17;;;;;;;153.65;145.93;;;;;;;;;;5040566;28;20126;-67
2022/07/20 01:07:47;;;;;;;122.85;116.68;;;;;;;;;;5037888;28;20034;-68
2022/07/20 01:10:14;;;;;;;115.50;109.70;;;;;;;;;;5037463;28;20040;-68
2022/07/20 01:12:47;;;;;;;133.52;126.75;;;;;;;;;;5035721;28;20052;-68
2022/07/20 01:15:12;;;;;;;147.48;140.07;;;;;;;;;;5037538;28;20036;-68
2022/07/20 01:17:38;;;;;;;172.55;164.00;;;;;;;;;;5037177;28;20037;-68
2022/07/20 01:20:04;;;;;;;158.93;150.95;;;;;;;;;;5036549;28;20017;-68
2022/07/20 01:22:29;;;;;;;151.57;143.98;;;;;;;;;;5037785;28;20032;-69
2022/07/20 01:24:55;;;;;;;135.65;128.82;;;;;;;;;;5039932;28;20036;-68
2022/07/20 01:27:20;;;;;;;167.15;158.77;;;;;;;;;;5035654;28;20028;-69
2022/07/20 01:29:45;;;;;;;159.43;151.50;;;;;;;;;;5035277;28;20033;-69
2022/07/20 01:32:10;;;;;;;134.20;127.45;;;;;;;;;;5034569;28;20025;-69
2022/07/20 01:34:36;;;;;;;157.45;149.57;;;;;;;;;;5034458;28;20033;-69
2022/07/20 01:37:01;;;;;;;145.30;138.05;;;;;;;;;;5032416;28;20017;-69
2022/07/20 01:39:27;;;;;;;106.38;101.00;;;;;;;;;;5036197;28;20029;-70
2022/07/20 01:41:55;;;;;;;147.32;139.98;;;;;;;;;;5038694;28;20094;-69
2022/07/20 01:44:21;;;;;;;147.73;140.32;;;;;;;;;;5033327;28;20110;-70
2022/07/20 01:46:48;;;;;;;141.55;134.43;;;;;;;;;;5034592;28;20040;-70
2022/07/20 01:49:14;;;;;;;156.07;148.32;;;;;;;;;;5035623;28;20045;-70
2022/07/20 01:51:40;;;;;;;135.27;128.52;;;;;;;;;;5033653;28;20058;-70
2022/07/20 01:54:05;;;;;;;147.52;140.20;;;;;;;;;;5033102;28;20474;-71
2022/07/20 01:56:30;;;;;;;102.40;97.22;;;;;;;;;;5034881;28;20107;-70
2022/07/20 01:58:56;;;;;;;153.70;146.00;;;;;;;;;;5035445;28;20032;-71
2022/07/20 02:01:21;;;;;;;132.35;125.65;;;;;;;;;;5033361;28;20351;-71
2022/07/20 02:03:46;;;;;;;156.50;148.70;;;;;;;;;;5035061;28;20052;-72
2022/07/20 02:06:12;;;;;;;117.05;111.07;;;;;;;;;;5036465;28;20028;-73
2022/07/20 02:08:37;;;;;;;121.90;115.65;;;;;;;;;;5035039;28;20136;-73
2022/07/20 02:11:03;;;;;;;118.78;112.43;;;;;;;;;;5032514;28;20037;-73
2022/07/20 02:13:28;;;;;;;124.10;117.50;;;;;;;;;;5034233;28;20513;-73
2022/07/20 02:18:37;;;;;;;110.18;104.47;;;;;;;;;;5036088;28;20017;-74
2022/07/20 02:21:03;;;;;;;107.97;102.38;;;;;;;;;;5032362;28;20079;-73
2022/07/20 02:23:28;;;;;;;133.40;126.60;;;;;;;;;;5033245;28;20404;-74
2022/07/20 02:25:53;;;;;;;154.30;146.27;;;;;;;;;;5032782;28;20432;-74
2022/07/20 02:28:19;;;;;;;149.55;141.70;;;;;;;;;;5032493;28;20430;-74
2022/07/20 02:30:44;;;;;;;99.35;94.20;;;;;;;;;;5034780;28;20037;-74
2022/07/20 02:33:09;;;;;;;181.88;172.55;;;;;;;;;;5035334;28;20033;-74
2022/07/20 02:35:35;;;;;;;130.52;123.72;;;;;;;;;;5035956;28;20021;-74
2022/07/20 02:38:00;;;;;;;122.78;116.63;;;;;;;;;;5033644;28;20469;-73
2022/07/20 02:40:26;;;;;;;146.93;139.38;;;;;;;;;;5033551;28;20045;-74
2022/07/20 02:42:51;;;;;;;176.40;167.60;;;;;;;;;;5036153;28;20056;-74
2022/07/20 02:45:16;;;;;;;172.45;163.80;;;;;;;;;;5036307;28;20056;-74
2022/07/20 02:47:46;;;;;;;187.77;178.48;;;;;;;;;;5033864;28;20025;-74
2022/07/20 02:50:12;;;;;;;162.77;154.63;;;;;;;;;;5033887;28;20036;-74
2022/07/20 02:52:42;;;;;;;190.10;180.68;;;;;;;;;;5032765;28;20136;-74
2022/07/20 02:55:08;;;;;;;166.60;158.23;;;;;;;;;;5032187;28;20665;-74
2022/07/20 02:57:34;;;;;;;158.15;149.98;;;;;;;;;;5036462;28;20625;-74
2022/07/20 03:00:00;;;;;;;181.93;172.85;;;;;;;;;;5034755;28;20100;-74
2022/07/20 03:02:25;;;;;;;172.30;163.63;;;;;;;;;;5034835;28;20110;-74
2022/07/20 03:04:51;;;;;;;188.13;178.85;;;;;;;;;;5037262;28;20129;-74
2022/07/20 03:07:17;;;;;;;190.30;181.00;;;;;;;;;;5033055;28;20544;-74
2022/07/20 03:09:43;;;;;;;144.50;137.35;;;;;;;;;;5035514;28;20049;-74
2022/07/20 03:12:09;;;;;;;132.60;126.03;;;;;;;;;;5033118;28;20036;-74
2022/07/20 03:14:34;;;;;;;141.50;134.50;;;;;;;;;;5036501;28;20118;-74
2022/07/20 03:16:59;;;;;;;125.82;119.30;;;;;;;;;;5033685;28;20025;-73
2022/07/20 03:19:25;;;;;;;138.10;131.20;;;;;;;;;;5032370;28;20575;-74
2022/07/20 03:21:50;;;;;;;88.18;83.78;;;;;;;;;;5034480;28;20029;-74
2022/07/20 03:24:15;;;;;;;104.03;98.88;;;;;;;;;;5030333;28;20029;-71
2022/07/20 03:26:41;;;;;;;101.38;96.18;;;;;;;;;;5035325;28;20041;-72
2022/07/20 03:29:06;;;;;;;96.97;92.18;;;;;;;;;;5041413;28;20154;-72
2022/07/20 03:31:31;;;;;;;140.52;133.63;;;;;;;;;;5033538;28;20068;-72
2022/07/20 03:33:57;;;;;;;130.13;123.57;;;;;;;;;;5035431;28;20066;-72
2022/07/20 03:36:22;;;;;;;132.65;126.13;;;;;;;;;;5031391;28;20029;-72
2022/07/20 03:38:47;;;;;;;148.95;141.57;;;;;;;;;;5033280;28;20029;-71
2022/07/20 03:41:12;;;;;;;155.40;147.68;;;;;;;;;;5031246;28;20045;-70
2022/07/20 03:43:38;;;;;;;139.95;132.85;;;;;;;;;;5031949;28;20057;-71
2022/07/20 03:46:03;;;;;;;144.68;137.30;;;;;;;;;;5029885;28;20136;-70
2022/07/20 03:48:28;;;;;;;203.88;193.32;;;;;;;;;;5032125;28;20636;-70
2022/07/20 03:50:54;;;;;;;158.50;150.30;;;;;;;;;;5036637;28;20539;-70
2022/07/20 03:53:19;;;;;;;210.82;199.95;;;;;;;;;;5035022;28;20995;-70
2022/07/20 03:55:44;;;;;;;293.70;278.40;;;;;;;;;;5028033;28;20025;-73
2022/07/20 03:58:10;;;;;;;223.50;211.95;;;;;;;;;;5035651;28;20030;-72
2022/07/20 04:00:35;;;;;;;250.18;237.27;;;;;;;;;;5033671;28;20037;-73
2022/07/20 04:03:00;;;;;;;281.90;267.33;;;;;;;;;;5032103;28;20051;-72
2022/07/20 04:05:26;;;;;;;275.90;261.70;;;;;;;;;;5034926;28;20040;-71
2022/07/20 04:07:51;;;;;;;283.98;269.27;;;;;;;;;;5032638;28;20029;-73
2022/07/20 04:10:16;;;;;;;266.45;252.70;;;;;;;;;;5020423;28;20344;-76
2022/07/20 04:12:42;;;;;;;223.95;212.48;;;;;;;;;;5031541;28;20134;-69
2022/07/20 04:15:08;;;;;;;237.00;224.55;;;;;;;;;;5035350;28;20036;-74
2022/07/20 04:17:33;;;;;;;400.00;378.65;;;;;;;;;;5033770;28;20033;-73
2022/07/20 04:19:59;;;;;;;427.25;404.35;;;;;;;;;;5031374;28;20391;-74
2022/07/20 04:22:24;;;;;;;436.98;413.38;;;;;;;;;;5034574;28;20044;-75
2022/07/20 04:24:50;;;;;;;448.48;423.77;;;;;;;;;;5038821;28;20654;-75
2022/07/20 04:27:15;;;;;;;417.33;394.95;;;;;;;;;;5039296;28;20114;-73
2022/07/20 04:29:40;;;;;;;425.23;402.25;;;;;;;;;;5034730;28;20470;-73
2022/07/20 04:32:06;;;;;;;423.00;400.30;;;;;;;;;;5041348;28;20463;-74
2022/07/20 04:34:31;;;;;;;371.70;352.15;;;;;;;;;;5038445;28;20033;-74
2022/07/20 04:36:57;;;;;;;408.00;386.20;;;;;;;;;;5035054;28;20119;-73
2022/07/20 04:39:23;;;;;;;378.20;358.13;;;;;;;;;;5040646;28;20406;-74
2022/07/20 04:41:48;;;;;;;307.63;291.48;;;;;;;;;;5036783;28;20157;-75
2022/07/20 04:44:13;;;;;;;351.58;333.15;;;;;;;;;;5036496;28;20098;-74
2022/07/20 04:46:39;;;;;;;253.15;240.30;;;;;;;;;;5038251;28;20094;-75
2022/07/20 04:49:05;;;;;;;312.05;296.15;;;;;;;;;;5036536;28;20033;-75
2022/07/20 04:51:30;;;;;;;340.88;323.23;;;;;;;;;;5035306;28;20383;-75
2022/07/20 04:53:56;;;;;;;368.00;348.80;;;;;;;;;;5036183;28;20104;-74
2022/07/20 04:56:21;;;;;;;399.58;378.52;;;;;;;;;;5036829;28;20525;-75
2022/07/20 04:58:52;;;;;;;345.67;327.58;;;;;;;;;;5034521;28;20112;-76
2022/07/20 05:01:19;;;;;;;372.02;352.25;;;;;;;;;;5034447;28;20060;-76
2022/07/20 05:03:44;;;;;;;361.17;342.35;;;;;;;;;;5036502;28;20033;-76
2022/07/20 05:06:09;;;;;;;289.20;274.38;;;;;;;;;;5034114;28;20040;-75
2022/07/20 05:08:35;;;;;;;351.88;333.55;;;;;;;;;;5032648;28;20048;-75
2022/07/20 05:11:00;;;;;;;324.00;307.40;;;;;;;;;;5034908;28;20371;-74
2022/07/20 05:13:25;;;;;;;356.58;338.17;;;;;;;;;;5035993;28;20056;-74
2022/07/20 05:15:51;;;;;;;160.80;152.50;;;;;;;;;;5035562;28;20095;-74
2022/07/20 05:18:16;;;;;;;368.98;349.45;;;;;;;;;;5037627;28;20033;-73
2022/07/20 05:20:41;;;;;;;405.42;383.40;;;;;;;;;;5033682;28;20465;-74
2022/07/20 05:23:07;;;;;;;367.10;347.48;;;;;;;;;;5036773;28;20459;-74
2022/07/20 05:25:33;;;;;;;347.75;329.70;;;;;;;;;;5036271;28;20448;-74
2022/07/20 05:27:58;;;;;;;368.98;349.73;;;;;;;;;;5035753;28;20033;-74
2022/07/20 05:30:24;;;;;;;271.65;257.20;;;;;;;;;;5036787;28;20115;-75
2022/07/20 05:32:49;;;;;;;101.18;96.15;;;;;;;;;;5038267;28;20037;-74
2022/07/20 05:35:14;;;;;;;93.63;88.95;;;;;;;;;;5036464;28;20032;-74
2022/07/20 05:37:40;;;;;;;78.68;74.65;;;;;;;;;;5034284;28;20033;-74
2022/07/20 05:40:06;;;;;;;41.55;39.38;;;;;;;;;;5037775;28;20028;-75
2022/07/20 05:42:31;;;;;;;84.25;80.03;;;;;;;;;;5036511;28;20057;-74
2022/07/20 05:44:56;;;;;;;108.68;103.05;;;;;;;;;;5034925;28;20129;-74
2022/07/20 05:47:22;;;;;;;81.85;77.60;;;;;;;;;;5034621;28;20081;-74
2022/07/20 05:49:48;;;;;;;76.05;72.10;;;;;;;;;;5034406;28;20037;-74
2022/07/20 05:52:17;;;;;;;66.97;63.55;;;;;;;;;;5035916;28;20029;-74
2022/07/20 05:54:42;;;;;;;214.85;204.13;;;;;;;;;;5033373;28;20041;-73
2022/07/20 05:57:08;;;;;;;96.00;91.10;;;;;;;;;;5034967;28;20025;-75
2022/07/20 05:59:33;;;;;;;228.02;216.20;;;;;;;;;;5035607;28;20029;-74
2022/07/20 06:01:58;;;;;;;93.85;89.20;;;;;;;;;;5032434;28;20100;-73
2022/07/20 06:04:24;;;;;;;95.38;90.47;;;;;;;;;;5035098;28;20713;-74
2022/07/20 06:06:49;;;;;;;166.65;158.35;;;;;;;;;;5035991;28;20114;-75
2022/07/20 06:09:14;;;;;;;173.90;165.18;;;;;;;;;;5035661;28;20045;-74
2022/07/20 06:11:40;;;;;;;244.07;231.80;;;;;;;;;;5034918;28;20091;-75
2022/07/20 06:14:06;;;;;;;149.05;141.50;;;;;;;;;;5032598;28;20040;-74
2022/07/20 06:16:31;;;;;;;154.48;146.57;;;;;;;;;;5031224;28;20029;-73
2022/07/20 06:18:56;;;;;;;247.77;235.05;;;;;;;;;;5036112;28;20029;-73
2022/07/20 06:21:22;;;;;;;231.77;220.02;;;;;;;;;;5035671;28;20123;-75
2022/07/20 06:23:47;;;;;;;151.25;143.52;;;;;;;;;;5033287;28;20029;-75
2022/07/20 06:26:12;;;;;;;319.80;303.48;;;;;;;;;;5016343;28;20033;-74
2022/07/20 06:28:38;;;;;;;347.95;330.17;;;;;;;;;;5034215;28;20102;-74
2022/07/20 06:31:05;;;;;;;352.60;334.77;;;;;;;;;;5035824;28;20623;-75
2022/07/20 06:33:31;;;;;;;346.00;328.63;;;;;;;;;;5034683;28;20029;-72
2022/07/20 06:35:56;;;;;;;366.65;347.88;;;;;;;;;;5035080;28;20117;-74
2022/07/20 06:38:21;;;;;;;342.35;325.08;;;;;;;;;;5034025;28;20439;-75
2022/07/20 06:40:47;;;;;;;333.35;316.38;;;;;;;;;;5035425;28;20032;-75
2022/07/20 06:43:12;;;;;;;233.70;222.18;;;;;;;;;;5035575;28;20565;-75
2022/07/20 06:45:37;;;;;;;165.88;157.43;;;;;;;;;;5033715;28;20040;-75
2022/07/20 06:48:03;;;;;;;187.45;178.13;;;;;;;;;;5036615;28;20044;-74
2022/07/20 06:50:28;;;;;;;197.07;187.30;;;;;;;;;;5032918;28;20040;-75
2022/07/20 06:52:54;;;;;;;106.72;101.30;;;;;;;;;;5037390;28;20069;-75
2022/07/20 06:55:19;;;;;;;108.15;102.68;;;;;;;;;;5035258;28;20082;-75
2022/07/20 06:57:45;;;;;;;215.05;204.38;;;;;;;;;;5033500;28;20041;-75
2022/07/20 07:00:12;;;;;;;249.40;236.65;;;;;;;;;;5033290;28;20032;-74
2022/07/20 07:02:37;;;;;;;163.98;155.63;;;;;;;;;;5036336;28;20025;-74
2022/07/20 07:05:04;;;;;;;228.27;216.55;;;;;;;;;;5033380;28;20760;-75
2022/07/20 07:07:29;;;;;;;159.68;151.32;;;;;;;;;;5034590;28;20043;-75
2022/07/20 07:09:55;;;;;;;344.13;326.58;;;;;;;;;;5033318;28;20459;-74
2022/07/20 07:12:20;;;;;;;367.10;348.40;;;;;;;;;;5035486;28;20021;-75
2022/07/20 07:14:45;;;;;;;341.63;323.75;;;;;;;;;;5032461;28;20348;-74
2022/07/20 07:17:11;;;;;;;288.95;273.98;;;;;;;;;;5034528;28;20139;-75
2022/07/20 07:19:39;;;;;;;237.43;224.90;;;;;;;;;;5034775;28;20033;-75
2022/07/20 07:22:04;;;;;;;426.40;403.75;;;;;;;;;;5034419;28;20044;-73
2022/07/20 07:24:29;;;;;;;441.55;418.20;;;;;;;;;;5035061;28;20033;-73
2022/07/20 07:26:55;;;;;;;436.15;413.02;;;;;;;;;;5034079;28;20025;-73
2022/07/20 07:29:20;;;;;;;322.70;305.83;;;;;;;;;;5032940;28;20074;-74
2022/07/20 07:31:45;;;;;;;255.82;242.73;;;;;;;;;;5033729;28;20359;-75
2022/07/20 07:34:11;;;;;;;307.48;291.65;;;;;;;;;;5034198;28;20371;-74
2022/07/20 07:36:36;;;;;;;378.10;358.17;;;;;;;;;;5035224;28;20044;-76
2022/07/20 07:39:03;;;;;;;439.33;415.48;;;;;;;;;;5032677;28;20026;-75
2022/07/20 07:41:28;;;;;;;469.08;443.42;;;;;;;;;;5033882;28;20168;-72
2022/07/20 07:43:54;;;;;;;460.83;435.55;;;;;;;;;;5036239;28;20913;-75
2022/07/20 07:46:19;;;;;;;354.33;335.67;;;;;;;;;;5034932;28;20033;-75
2022/07/20 07:48:44;;;;;;;356.88;338.15;;;;;;;;;;5035123;28;20037;-75
2022/07/20 07:51:10;;;;;;;458.20;433.38;;;;;;;;;;5031715;28;20082;-75
2022/07/20 07:53:35;;;;;;;324.85;308.23;;;;;;;;;;5035740;28;20082;-76
2022/07/20 07:56:01;;;;;;;373.48;354.13;;;;;;;;;;5032085;28;20459;-76
2022/07/20 07:58:26;;;;;;;318.77;301.40;;;;;;;;;;5035410;28;20135;-75
2022/07/20 08:00:51;;;;;;;209.30;198.73;;;;;;;;;;5038611;28;20029;-74
2022/07/20 08:03:17;;;;;;;355.10;336.23;;;;;;;;;;5037661;28;20037;-75
2022/07/20 08:05:42;;;;;;;184.88;175.48;;;;;;;;;;5037694;28;20496;-76
2022/07/20 08:08:11;;;;;;;426.25;403.35;;;;;;;;;;5036585;28;20044;-75
2022/07/20 08:10:39;;;;;;;322.92;306.20;;;;;;;;;;5036476;28;20025;-76
2022/07/20 08:13:05;;;;;;;225.80;214.50;;;;;;;;;;5037393;28;20025;-75
2022/07/20 08:15:30;;;;;;;280.70;265.80;;;;;;;;;;5037027;28;20040;-76
2022/07/20 08:17:55;;;;;;;400.77;379.67;;;;;;;;;;5035730;28;20025;-75
2022/07/20 08:20:22;;;;;;;261.77;248.75;;;;;;;;;;5039034;28;20017;-75
2022/07/20 08:22:51;;;;;;;291.17;276.67;;;;;;;;;;5037231;28;20037;-76
2022/07/20 08:25:17;;;;;;;253.68;241.07;;;;;;;;;;5035122;28;20640;-74
2022/07/20 08:27:42;;;;;;;205.10;194.85;;;;;;;;;;5036730;28;20033;-75
2022/07/20 08:30:08;;;;;;;433.13;409.52;;;;;;;;;;5034589;28;20134;-74
2022/07/20 08:32:34;;;;;;;295.65;280.67;;;;;;;;;;5038375;28;20037;-75
2022/07/20 08:34:59;;;;;;;248.05;235.70;;;;;;;;;;5038974;28;20033;-75
2022/07/20 08:37:25;;;;;;;231.20;219.82;;;;;;;;;;5036164;28;20066;-75
2022/07/20 08:39:50;;;;;;;256.80;244.18;;;;;;;;;;5033745;28;20036;-75
2022/07/20 08:42:16;;;;;;;238.15;226.38;;;;;;;;;;5036409;28;20025;-74
2022/07/20 08:44:43;;;;;;;136.30;129.50;;;;;;;;;;5035589;28;20037;-77
2022/07/20 08:47:12;;;;;;;135.07;128.35;;;;;;;;;;5034828;28;20029;-76
2022/07/20 08:49:44;;;;;;;233.02;221.57;;;;;;;;;;5035512;28;20361;-75
2022/07/20 08:52:10;;;;;;;164.65;156.38;;;;;;;;;;5036270;28;20112;-74
2022/07/20 08:54:36;;;;;;;124.57;118.38;;;;;;;;;;5035967;28;20829;-75
2022/07/20 08:57:10;;;;;;;223.20;212.20;;;;;;;;;;5037212;28;20058;-76
2022/07/20 08:59:35;;;;;;;173.57;164.93;;;;;;;;;;5053920;28;20021;-76
2022/07/20 09:02:05;;;;;;;194.82;185.20;;;;;;;;;;5035881;28;20044;-76
2022/07/20 09:04:31;;;;;;;166.32;157.95;;;;;;;;;;5037661;28;20428;-75
2022/07/20 09:06:56;;;;;;;141.45;134.43;;;;;;;;;;5036542;28;20041;-75
2022/07/20 09:09:22;;;;;;;117.70;111.82;;;;;;;;;;5033178;28;20021;-76
2022/07/20 09:11:49;;;;;;;107.20;101.85;;;;;;;;;;5036364;28;20025;-75
2022/07/20 09:14:48;;;;;;;151.38;143.88;;;;;;;;;;5037124;28;20029;-75
2022/07/20 09:17:17;;;;;;;132.30;125.70;;;;;;;;;;5036416;28;20037;-75
2022/07/20 09:19:58;;;;;;;138.35;131.50;;;;;;;;;;5040229;28;20052;-74
2022/07/20 09:22:31;;;;;;;130.00;123.53;;;;;;;;;;5037524;28;20488;-75
2022/07/20 09:25:09;;;;;;;121.28;115.28;;;;;;;;;;5036071;28;20099;-73
2022/07/20 09:27:35;;;;;;;97.25;92.45;;;;;;;;;;5034419;28;20032;-75
2022/07/20 09:30:05;;;;;;;101.22;96.22;;;;;;;;;;5036416;28;20320;-73
2022/07/20 09:32:47;;;;;;;97.25;92.45;;;;;;;;;;5035907;28;20032;-74
2022/07/20 09:35:13;;;;;;;93.38;88.78;;;;;;;;;;5037636;28;20031;-74
2022/07/20 09:37:38;;;;;;;82.15;78.05;;;;;;;;;;5035966;28;20033;-73
2022/07/20 09:40:04;;;;;;;95.97;91.18;;;;;;;;;;5034572;28;20052;-73
2022/07/20 09:42:40;;;;;;;114.43;108.75;;;;;;;;;;5035235;28;20029;-73
2022/07/20 09:45:18;;;;;;;72.28;68.63;;;;;;;;;;5037159;28;20032;-73
2022/07/20 09:48:00;;;;;;;72.40;67.07;;;;;;;;;;5037260;28;20697;-74
2022/07/20 09:50:28;;;;;;;67.70;64.25;;;;;;;;;;5036027;28;20033;-76
2022/07/20 09:52:53;;;;;;;108.70;103.30;;;;;;;;;;5036696;28;20040;-74
2022/07/20 09:55:18;;;;;;;80.63;76.63;;;;;;;;;;5035953;28;20056;-73
2022/07/20 09:57:44;;;;;;;47.53;45.13;;;;;;;;;;5036727;28;20138;-73
2022/07/20 10:00:10;;;;;;;68.90;65.22;;;;;;;;;;5034443;28;20410;-74
2022/07/20 10:02:37;;;;;;;48.65;46.15;;;;;;;;;;5035553;28;20025;-74
2022/07/20 10:05:02;;;;;;;75.03;71.18;;;;;;;;;;5040851;28;20043;-74
2022/07/20 10:07:29;;;;;;;71.45;67.88;;;;;;;;;;5036297;28;20033;-75
2022/07/20 10:09:55;;;;;;;104.95;99.70;;;;;;;;;;5038415;28;20068;-73
2022/07/20 10:12:20;;;;;;;104.60;99.38;;;;;;;;;;5037238;28;20060;-73
2022/07/20 10:14:49;;;;;;;71.30;67.75;;;;;;;;;;5034733;28;20691;-76
2022/07/20 10:17:15;;;;;;;113.73;108.03;;;;;;;;;;5037304;28;20044;-74
2022/07/20 10:19:46;;;;;;;118.97;112.97;;;;;;;;;;5037185;28;20029;-78
2022/07/20 10:22:12;;;;;;;72.38;68.72;;;;;;;;;;5042312;28;20056;-75
2022/07/20 10:24:39;;;;;;;87.70;83.38;;;;;;;;;;5038177;28;20043;-76
2022/07/20 10:27:07;;;;;;;134.27;127.60;;;;;;;;;;5037577;28;20033;-76
2022/07/20 10:29:41;;;;;;;101.38;96.38;;;;;;;;;;5038901;28;20029;-73
2022/07/20 10:32:09;;;;;;;99.28;94.35;;;;;;;;;;5038222;28;20407;-76
2022/07/20 10:34:39;;;;;;;53.33;50.63;;;;;;;;;;5038888;28;20030;-76
2022/07/20 10:37:25;;;;;;;115.20;109.50;;;;;;;;;;5035553;28;20470;-77
2022/07/20 10:39:52;;;;;;;105.80;100.47;;;;;;;;;;5037004;28;20033;-78
2022/07/20 10:42:23;;;;;;;58.08;55.15;;;;;;;;;;5034898;28;20026;-77
2022/07/20 10:44:50;;;;;;;222.48;211.60;;;;;;;;;;5035947;28;20033;-78
2022/07/20 10:47:42;;;;;;;111.90;106.22;;;;;;;;;;5036540;28;20033;-76
2022/07/20 10:50:31;;;;;;;228.57;217.20;;;;;;;;;;5036847;28;20055;-76
2022/07/20 10:53:09;;;;;;;192.70;183.10;;;;;;;;;;5034853;28;20128;-75
2022/07/20 10:55:34;;;;;;;186.45;177.10;;;;;;;;;;5035863;28;20041;-74
2022/07/20 10:58:06;;;;;;;222.40;211.38;;;;;;;;;;5037521;28;20037;-77
2022/07/20 11:00:34;;;;;;;181.00;172.07;;;;;;;;;;5037703;28;20068;-75
2022/07/20 11:03:01;;;;;;;219.55;208.15;;;;;;;;;;5038343;28;20043;-74
2022/07/20 11:05:26;;;;;;;185.68;176.30;;;;;;;;;;5035890;28;20029;-74
2022/07/20 11:07:51;;;;;;;193.95;184.35;;;;;;;;;;5035814;28;20035;-77
2022/07/20 11:10:26;;;;;;;186.32;177.02;;;;;;;;;;5034604;28;20025;-76
2022/07/20 11:13:05;;;;;;;205.05;194.80;;;;;;;;;;5035020;28;20029;-75
2022/07/20 11:15:37;;;;;;;;;;;;;;;;;;5035083;28;20121;-75
2022/07/20 11:18:03;;;;;;;283.13;269.13;;;;;;;;;;5038510;28;19913;-76
2022/07/20 11:20:28;;;;;;;305.95;290.75;;;;;;;;;;5034654;28;20016;-76
2022/07/20 11:22:56;;;;;;;269.60;256.30;;;;;;;;;;5036282;28;20031;-73
2022/07/20 11:25:21;;;;;;;293.10;278.58;;;;;;;;;;5035602;28;20041;-72
2022/07/20 11:28:03;;;;;;;338.02;320.98;;;;;;;;;;5035676;28;20111;-76
2022/07/20 11:30:34;;;;;;;261.95;248.90;;;;;;;;;;5035489;28;20037;-75
2022/07/20 11:33:00;;;;;;;256.27;243.63;;;;;;;;;;5037113;28;20116;-75
2022/07/20 11:35:26;;;;;;;303.75;288.58;;;;;;;;;;5042651;28;20108;-75
2022/07/20 11:37:52;;;;;;;179.63;170.70;;;;;;;;;;5042458;28;20033;-76
2022/07/20 11:40:19;;;;;;;266.20;253.07;;;;;;;;;;5041010;28;20017;-76
2022/07/20 11:43:05;;;;;;;143.43;136.30;;;;;;;;;;5039644;28;20403;-74
2022/07/20 11:45:30;;;;;;;150.60;143.18;;;;;;;;;;5037390;28;20083;-75
2022/07/20 11:47:56;;;;;;;123.55;117.45;;;;;;;;;;5037093;28;20044;-72
2022/07/20 11:50:21;;;;;;;136.05;129.15;;;;;;;;;;5034084;28;20033;-71
2022/07/20 11:52:46;;;;;;;123.47;117.30;;;;;;;;;;5035380;28;20056;-72
2022/07/20 11:55:12;;;;;;;153.65;146.05;;;;;;;;;;5039412;28;20033;-72
2022/07/20 11:57:38;;;;;;;130.02;123.43;;;;;;;;;;5036847;28;20029;-71
2022/07/20 12:00:05;;;;;;;237.85;226.10;;;;;;;;;;5037497;28;20496;-73
2022/07/20 12:02:31;;;;;;;155.82;148.05;;;;;;;;;;5038364;28;20667;-71
2022/07/20 12:04:58;;;;;;;269.42;255.95;;;;;;;;;;5034380;28;20029;-75
2022/07/20 12:10:24;;;;;;;266.65;253.38;;;;;;;;;;5034668;28;20586;-73
2022/07/20 12:13:03;;;;;;;;;;;;;;;;;;5044430;28;20049;-75
2022/07/20 12:15:29;;;;;;;313.77;298.05;;;;;;;;;;5036792;28;20630;-73
2022/07/20 12:17:54;;;;;;;322.60;306.45;;;;;;;;;;5037924;28;20024;-72
2022/07/20 12:20:21;;;;;;;300.00;285.13;;;;;;;;;;5035183;28;20029;-73
2022/07/20 12:22:56;;;;;;;317.65;301.92;;;;;;;;;;5039064;28;20068;-70
2022/07/20 12:25:33;;;;;;;305.13;290.13;;;;;;;;;;5038818;28;20057;-74
2022/07/20 12:27:58;;;;;;;314.50;298.95;;;;;;;;;;5035801;28;20818;-64
2022/07/20 12:30:26;;;;;;;320.52;304.63;;;;;;;;;;5034985;28;20052;-66
2022/07/20 12:33:12;;;;;;;343.08;325.80;;;;;;;;;;5034998;28;20037;-64
2022/07/20 12:35:43;;;;;;;304.83;289.80;;;;;;;;;;5034496;28;20603;-64
2022/07/20 12:38:09;;;;;;;311.17;295.92;;;;;;;;;;5038001;28;20037;-69
2022/07/20 12:40:46;;;;;;;284.70;270.77;;;;;;;;;;5033351;28;20080;-67
2022/07/20 12:43:31;;;;;;;162.13;154.13;;;;;;;;;;5027242;28;20037;-65
2022/07/20 12:45:59;;;;;;;108.95;103.50;;;;;;;;;;5027924;28;20041;-63
2022/07/20 12:48:25;;;;;;;95.65;90.93;;;;;;;;;;5030952;28;20129;-67
2022/07/20 12:50:50;;;;;;;97.88;93.03;;;;;;;;;;5035597;28;20040;-66
2022/07/20 12:53:15;;;;;;;116.20;110.50;;;;;;;;;;5038379;28;20507;-66
2022/07/20 12:55:41;;;;;;;99.32;94.43;;;;;;;;;;5035521;28;20070;-65
2022/07/20 12:58:06;;;;;;;222.23;211.40;;;;;;;;;;5038938;28;20040;-68
2022/07/20 13:00:32;;;;;;;167.25;158.98;;;;;;;;;;5035963;28;20041;-67
2022/07/20 13:02:57;;;;;;;164.50;156.45;;;;;;;;;;5035963;28;20108;-68
2022/07/20 13:05:22;;;;;;;126.20;119.95;;;;;;;;;;5038512;28;20028;-68
2022/07/20 13:07:48;;;;;;;157.02;149.23;;;;;;;;;;5034453;28;20159;-68
2022/07/20 13:10:14;;;;;;;160.07;152.23;;;;;;;;;;5034510;28;20026;-65
2022/07/20 13:12:40;;;;;;;122.18;116.03;;;;;;;;;;5036478;28;20037;-67
2022/07/20 13:15:06;;;;;;;143.15;136.07;;;;;;;;;;5037101;28;20033;-67
2022/07/20 13:17:32;;;;;;;127.28;120.75;;;;;;;;;;5037170;28;20043;-71
2022/07/20 13:19:58;;;;;;;232.40;220.82;;;;;;;;;;5036018;28;20629;-66
2022/07/20 13:22:23;;;;;;;240.25;228.43;;;;;;;;;;5038660;28;20040;-65
2022/07/20 13:24:48;;;;;;;260.38;247.68;;;;;;;;;;5037520;28;20037;-64
2022/07/20 13:27:14;;;;;;;90.20;85.75;;;;;;;;;;5038532;28;20034;-61
2022/07/20 13:29:40;;;;;;;261.80;248.82;;;;;;;;;;5039849;28;20037;-65
2022/07/20 13:32:05;;;;;;;341.52;324.40;;;;;;;;;;5040564;28;20025;-60
2022/07/20 13:34:30;;;;;;;266.50;253.45;;;;;;;;;;5043857;28;20020;-65
2022/07/20 13:36:56;;;;;;;149.13;141.75;;;;;;;;;;5046481;28;20041;-67
2022/07/20 13:39:21;;;;;;;115.65;109.82;;;;;;;;;;5038130;28;20078;-67
2022/07/20 13:41:47;;;;;;;377.60;358.33;;;;;;;;;;5039684;28;20618;-61
2022/07/20 13:44:13;;;;;;;230.95;219.68;;;;;;;;;;5043593;28;20024;-66
2022/07/20 13:46:38;;;;;;;368.90;350.05;;;;;;;;;;5040680;28;20047;-65
2022/07/20 13:49:03;;;;;;;311.10;295.67;;;;;;;;;;5042538;28;20025;-65
2022/07/20 13:51:29;;;;;;;179.32;170.48;;;;;;;;;;5041279;28;20034;-64
2022/07/20 13:53:55;;;;;;;355.27;337.08;;;;;;;;;;5041161;28;20029;-66
2022/07/20 13:56:20;;;;;;;359.13;340.77;;;;;;;;;;5040376;28;20032;-65
2022/07/20 13:58:45;;;;;;;306.35;290.75;;;;;;;;;;5040561;28;20037;-65
2022/07/20 14:01:11;;;;;;;386.10;366.42;;;;;;;;;;5039679;28;20074;-67
2022/07/20 14:03:36;;;;;;;372.15;353.35;;;;;;;;;;5043027;28;20090;-68